Jeppesen Maersk — OWTW2 — position and weather

sailwx.info

Track history (hours):
 
Tides and Currents Weather Stations Pressure Air Temp Water Temp Dewpoint Dewpoint Depression Visibility Wind Speed Wind Dir Waves Ship Positions

Jeppesen Maersk

Last reported at 2015-Jul-28 05:32 UTC. Time now 2015-Aug-03 19:09 UTC.
Position S 33°20' E 152°01'.

Type: Ship (hazmat cat A). MMSI: 219953000.

Date/timePositionNaut miles runAvg speedWind from/ knotsBaromVisibWave heightAir tempDewpointWater temp
2015-Jul-28 05:32S 33°20' E 152°01'1515.0
2015-Jul-28 04:33S 33°09' E 152°11'1514.8
2015-Jul-28 03:34S 32°57' E 152°22'1514.7
2015-Jul-28 02:34S 32°46' E 152°33'1514.5
2015-Jul-28 01:33S 32°34' E 152°44'1413.9
2015-Jul-28 00:33S 32°22' E 152°51'31513.1
2015-Jul-27 00:33S 27°10' E 153°49'1018.9
2015-Jul-27 00:00S 27°00' E 153°48'4 7.7 250 / 231023.510.8 1.020.010.923.0
2015-Jul-26 23:25S 26°56' E 153°48'1213.2
2015-Jul-26 22:32S 26°44' E 153°46'1812.9
2015-Jul-26 21:09S 26°26' E 153°45'712.1
2015-Jul-26 20:33S 26°19' E 153°44'1212.0
2015-Jul-26 19:33S 26°07' E 153°43'1312.9
2015-Jul-26 18:31S 25°54' E 153°41'814.4
2015-Jul-26 18:00S 25°48' E 153°36'916.4 270 / 111021.510.8 2.022.020.523.0
2015-Jul-26 17:28S 25°40' E 153°40'  
2015-Jul-20 18:00S 08°54' E 130°48'   130 / 211014.110.8 2.526.021.526.0
Track history (hours):
 
Tides and Currents Weather Stations Pressure Air Temp Water Temp Dewpoint Dewpoint Depression Visibility Wind Speed Wind Dir Waves Ship Positions

Jeppesen Maersk

Last reported at 2015-Jul-28 05:32 UTC. Time now 2015-Aug-03 19:09 UTC.
Position S 33°20' E 152°01'.

Type: Ship (hazmat cat A). MMSI: 219953000.

Date/timePositionNaut miles runAvg speedWind from/ knotsBaromVisibWave heightAir tempDewpointWater temp
2015-Jul-28 05:32S 33°20' E 152°01'1515.0
2015-Jul-28 04:33S 33°09' E 152°11'1514.8
2015-Jul-28 03:34S 32°57' E 152°22'1514.7
2015-Jul-28 02:34S 32°46' E 152°33'1514.5
2015-Jul-28 01:33S 32°34' E 152°44'1413.9
2015-Jul-28 00:33S 32°22' E 152°51'31513.1
2015-Jul-27 00:33S 27°10' E 153°49'1018.9
2015-Jul-27 00:00S 27°00' E 153°48'4 7.7 250 / 231023.510.8 1.020.010.923.0
2015-Jul-26 23:25S 26°56' E 153°48'1213.2
2015-Jul-26 22:32S 26°44' E 153°46'1812.9
2015-Jul-26 21:09S 26°26' E 153°45'712.1
2015-Jul-26 20:33S 26°19' E 153°44'1212.0
2015-Jul-26 19:33S 26°07' E 153°43'1312.9
2015-Jul-26 18:31S 25°54' E 153°41'814.4
2015-Jul-26 18:00S 25°48' E 153°36'916.4 270 / 111021.510.8 2.022.020.523.0
2015-Jul-26 17:28S 25°40' E 153°40'  
2015-Jul-20 18:00S 08°54' E 130°48'   130 / 211014.110.8 2.526.021.526.0

Dump ship's entire track history